createdAt,value
2022-08-10T00:01:44.346Z,4.80
2022-08-10T00:04:15.585Z,4.70
2022-08-10T00:06:49.580Z,4.80
2022-08-10T00:09:16.651Z,4.80
2022-08-10T00:11:43.477Z,4.80
2022-08-10T00:14:10.382Z,4.20
2022-08-10T00:16:37.263Z,4.00
2022-08-10T00:19:04.308Z,4.40
2022-08-10T00:21:31.056Z,4.80
2022-08-10T00:23:57.898Z,4.70
2022-08-10T00:26:24.855Z,4.40
2022-08-10T00:28:53.059Z,4.30
2022-08-10T00:31:19.971Z,4.50
2022-08-10T00:33:47.202Z,4.60
2022-08-10T00:36:14.347Z,4.60
2022-08-10T00:38:41.276Z,4.40
2022-08-10T00:41:08.367Z,5.30
2022-08-10T00:43:35.574Z,4.90
2022-08-10T00:46:02.567Z,4.70
2022-08-10T00:48:30.315Z,4.50
2022-08-10T00:50:59.658Z,4.00
2022-08-10T00:53:30.135Z,4.60
2022-08-10T00:57:15.097Z,4.20
2022-08-10T00:58:45.369Z,4.30
2022-08-10T01:02:07.786Z,4.00
2022-08-10T01:04:36.496Z,4.30
2022-08-10T01:07:14.480Z,4.30
2022-08-10T01:10:11.319Z,4.60
2022-08-10T01:13:03.001Z,4.20
2022-08-10T01:16:02.184Z,4.50
2022-08-10T01:18:38.413Z,4.40
2022-08-10T01:21:46.224Z,4.40
2022-08-10T01:24:58.805Z,4.00
2022-08-10T01:27:48.451Z,4.50
2022-08-10T01:30:18.612Z,4.10
2022-08-10T01:33:09.276Z,4.10
2022-08-10T01:35:36.182Z,4.20
2022-08-10T01:42:07.831Z,4.30
2022-08-10T01:44:40.273Z,4.10
2022-08-10T01:47:31.808Z,3.90
2022-08-10T01:50:11.628Z,4.50
2022-08-10T01:52:43.353Z,4.10
2022-08-10T01:55:12.202Z,3.70
2022-08-10T01:57:41.713Z,4.00
2022-08-10T02:00:13.479Z,4.00
2022-08-10T02:02:43.456Z,3.80
2022-08-10T02:05:12.547Z,3.70
2022-08-10T02:07:42.565Z,4.30
2022-08-10T02:10:13.665Z,4.40
2022-08-10T02:12:44.001Z,4.50
2022-08-10T02:15:16.819Z,4.50
2022-08-10T02:17:58.056Z,4.70
2022-08-10T02:20:33.949Z,5.10
2022-08-10T02:23:06.037Z,5.10
2022-08-10T02:25:40.609Z,4.80
2022-08-10T02:28:27.419Z,4.70
2022-08-10T02:31:02.810Z,4.70
2022-08-10T02:33:30.649Z,5.00
2022-08-10T02:36:02.444Z,4.70
2022-08-10T02:38:58.766Z,4.80
2022-08-10T02:45:02.897Z,4.60
2022-08-10T02:45:16.001Z,4.50
2022-08-10T02:47:46.609Z,4.70
2022-08-10T02:50:32.801Z,4.80
2022-08-10T02:53:54.786Z,4.90
2022-08-10T02:56:10.079Z,3.80
2022-08-10T02:59:09.529Z,4.50
2022-08-10T03:01:43.782Z,4.40
2022-08-10T03:04:55.626Z,4.10
2022-08-10T03:07:13.614Z,4.40
2022-08-10T03:09:42.060Z,4.40
2022-08-10T03:12:36.227Z,4.60
2022-08-10T03:15:01.044Z,4.20
2022-08-10T03:17:30.481Z,4.10
2022-08-10T03:20:33.908Z,4.00
2022-08-10T03:22:51.266Z,3.70
2022-08-10T03:25:22.522Z,3.80
2022-08-10T03:27:50.087Z,4.00
2022-08-10T03:30:29.311Z,4.30
2022-08-10T03:33:04.392Z,4.20
2022-08-10T03:35:32.113Z,4.20
2022-08-10T03:38:01.019Z,4.80
2022-08-10T03:40:46.465Z,4.50
2022-08-10T03:43:19.488Z,4.50
2022-08-10T03:45:56.039Z,4.00
2022-08-10T03:48:32.282Z,3.90
2022-08-10T03:51:17.672Z,4.40
2022-08-10T03:54:05.855Z,4.10
2022-08-10T03:56:33.250Z,3.90
2022-08-10T03:59:01.857Z,4.10
2022-08-10T04:02:46.746Z,4.60
2022-08-10T04:04:23.526Z,4.40
2022-08-10T04:06:55.025Z,4.50
2022-08-10T04:09:54.413Z,5.50
2022-08-10T04:12:17.607Z,4.30
2022-08-10T04:14:49.776Z,4.20
2022-08-10T04:18:01.143Z,4.00
2022-08-10T04:20:36.094Z,4.20
2022-08-10T04:23:07.902Z,3.90
2022-08-10T04:25:36.023Z,4.10
2022-08-10T04:28:03.687Z,4.20
2022-08-10T04:30:32.686Z,4.90
2022-08-10T04:33:02.432Z,4.40
2022-08-10T04:35:30.774Z,4.40
2022-08-10T04:37:59.499Z,4.10
2022-08-10T04:40:30.405Z,4.40
2022-08-10T04:43:12.931Z,4.50
2022-08-10T04:45:48.329Z,4.00
2022-08-10T04:48:41.044Z,4.40
2022-08-10T04:51:10.976Z,4.40
2022-08-10T04:54:04.382Z,4.50
2022-08-10T04:56:31.605Z,4.90
2022-08-10T04:59:00.822Z,5.70
2022-08-10T05:02:30.088Z,6.40
2022-08-10T05:04:34.747Z,6.80
2022-08-10T05:07:03.594Z,7.90
2022-08-10T05:09:30.338Z,8.40
2022-08-10T05:11:58.054Z,8.40
2022-08-10T05:14:26.223Z,8.20
2022-08-10T05:16:53.294Z,9.20
2022-08-10T05:20:01.377Z,10.10
2022-08-10T05:22:07.336Z,10.60
2022-08-10T05:24:34.262Z,11.90
2022-08-10T05:27:09.384Z,12.60
2022-08-10T05:29:37.561Z,12.70
2022-08-10T05:32:05.355Z,12.70
2022-08-10T05:34:32.215Z,12.50
2022-08-10T05:36:59.158Z,10.60
2022-08-10T05:39:32.019Z,10.50
2022-08-10T05:42:01.237Z,9.80
2022-08-10T05:44:29.997Z,9.70
2022-08-10T05:46:57.075Z,9.50
2022-08-10T05:49:25.340Z,9.60
2022-08-10T05:51:52.395Z,10.00
2022-08-10T05:54:20.149Z,9.00
2022-08-10T05:56:56.940Z,9.40
2022-08-10T06:00:31.184Z,8.40
2022-08-10T06:02:41.611Z,6.70
2022-08-10T06:05:13.759Z,7.10
2022-08-10T06:07:46.919Z,7.50
2022-08-10T06:10:28.624Z,7.30
2022-08-10T06:13:30.719Z,6.90
2022-08-10T06:16:05.721Z,7.70
2022-08-10T06:18:33.062Z,7.30
2022-08-10T06:21:03.700Z,8.50
2022-08-10T06:23:31.968Z,9.20
2022-08-10T06:26:09.993Z,8.10
2022-08-10T06:28:44.134Z,8.10
2022-08-10T06:31:47.465Z,9.40
2022-08-10T06:34:27.529Z,8.90
2022-08-10T06:36:57.735Z,9.20
2022-08-10T06:39:40.067Z,9.90
2022-08-10T06:42:18.182Z,9.20
2022-08-10T06:44:55.833Z,5.60
2022-08-10T06:47:29.488Z,5.90
2022-08-10T06:50:04.856Z,4.70
2022-08-10T06:55:05.429Z,3.10
2022-08-10T06:57:37.686Z,2.90
2022-08-10T07:00:06.825Z,3.10
2022-08-10T07:03:07.975Z,2.60
2022-08-10T07:05:39.678Z,2.60
2022-08-10T07:08:08.879Z,2.80
2022-08-10T07:10:41.201Z,2.70
2022-08-10T07:14:15.942Z,3.00
2022-08-10T07:16:05.926Z,2.80
2022-08-10T07:18:34.207Z,2.70
2022-08-10T07:21:02.274Z,3.10
2022-08-10T07:23:58.433Z,2.50
2022-08-10T07:26:19.909Z,2.30
2022-08-10T07:28:48.711Z,2.40
2022-08-10T07:31:32.997Z,2.40
2022-08-10T07:34:07.644Z,2.20
2022-08-10T07:36:36.682Z,2.40
2022-08-10T07:39:06.216Z,2.30
2022-08-10T07:41:34.918Z,2.60
2022-08-10T07:44:05.662Z,2.20
2022-08-10T07:46:35.409Z,1.60
2022-08-10T07:49:19.240Z,1.50
2022-08-10T07:51:54.859Z,2.40
2022-08-10T07:54:25.553Z,1.90
2022-08-10T07:56:55.947Z,1.90
2022-08-10T07:59:37.060Z,1.70
2022-08-10T08:02:06.493Z,1.80
2022-08-10T08:04:34.507Z,1.60
2022-08-10T08:07:04.622Z,1.90
2022-08-10T08:09:33.467Z,2.00
2022-08-10T08:12:02.147Z,1.70
2022-08-10T08:14:30.545Z,2.00
2022-08-10T08:16:59.169Z,1.80
2022-08-10T08:19:28.381Z,1.90
2022-08-10T08:24:04.823Z,1.80
2022-08-10T08:24:56.747Z,2.00
2022-08-10T08:27:24.621Z,3.00
2022-08-10T08:29:52.885Z,2.20
2022-08-10T08:32:26.585Z,2.40
2022-08-10T08:35:06.556Z,2.00
2022-08-10T08:38:32.172Z,2.60
2022-08-10T08:40:33.933Z,2.10
2022-08-10T08:43:27.299Z,1.90
2022-08-10T08:46:35.059Z,1.70
2022-08-10T08:50:09.153Z,1.90
2022-08-10T08:52:19.942Z,1.40
2022-08-10T08:56:02.903Z,1.60
2022-08-10T08:58:29.481Z,1.50
2022-08-10T09:01:13.730Z,1.80
2022-08-10T09:04:22.220Z,1.20
2022-08-10T09:07:59.404Z,1.60
2022-08-10T09:10:37.886Z,1.50
2022-08-10T09:13:34.329Z,1.40
2022-08-10T09:16:26.263Z,1.70
2022-08-10T09:19:00.240Z,1.60
2022-08-10T09:21:26.920Z,1.40
2022-08-10T09:24:41.930Z,1.30
2022-08-10T09:27:19.737Z,1.40
2022-08-10T09:30:16.457Z,1.50
2022-08-10T09:36:14.077Z,1.40
2022-08-10T09:36:27.003Z,1.30
2022-08-10T09:40:12.229Z,1.40
2022-08-10T09:42:15.168Z,1.70
2022-08-10T09:45:00.135Z,1.30
2022-08-10T09:48:01.983Z,1.50
2022-08-10T09:53:44.552Z,1.50
2022-08-10T09:56:21.409Z,1.40
2022-08-10T09:59:59.331Z,1.40
2022-08-10T10:02:15.311Z,1.30
2022-08-10T10:05:21.283Z,1.40
2022-08-10T10:08:10.726Z,1.50
2022-08-10T10:10:52.021Z,1.40
2022-08-10T10:14:00.191Z,1.50
2022-08-10T10:16:45.414Z,1.20
2022-08-10T10:19:44.333Z,1.40
2022-08-10T10:22:38.527Z,1.30
2022-08-10T10:25:51.397Z,1.10
2022-08-10T10:28:59.771Z,1.50
2022-08-10T10:31:22.903Z,1.40
2022-08-10T10:33:51.500Z,1.60
2022-08-10T10:36:20.986Z,2.00
2022-08-10T10:38:49.548Z,1.50
2022-08-10T10:42:03.489Z,1.60
2022-08-10T10:45:00.103Z,1.80
2022-08-10T10:47:35.958Z,1.30
2022-08-10T10:50:15.942Z,1.40
2022-08-10T10:52:57.215Z,1.40
2022-08-10T10:56:15.053Z,1.50
2022-08-10T10:59:54.042Z,1.30
2022-08-10T11:02:19.101Z,0.90
2022-08-10T11:04:57.489Z,1.10
2022-08-10T11:07:53.414Z,1.10
2022-08-10T11:10:46.474Z,1.30
2022-08-10T11:14:27.365Z,1.00
2022-08-10T11:17:03.064Z,1.30
2022-08-10T11:20:08.751Z,1.00
2022-08-10T11:22:51.773Z,1.10
2022-08-10T11:25:24.692Z,1.00
2022-08-10T11:28:22.360Z,1.00
2022-08-10T11:31:05.483Z,1.00
2022-08-10T11:36:49.979Z,0.90
2022-08-10T11:39:37.188Z,1.30
2022-08-10T11:42:35.836Z,1.80
2022-08-10T11:45:11.417Z,1.30
2022-08-10T11:47:46.640Z,1.60
2022-08-10T11:53:16.241Z,1.00
2022-08-10T11:55:49.547Z,1.00
2022-08-10T11:58:40.060Z,1.10
2022-08-10T12:01:10.488Z,1.00
2022-08-10T12:03:40.132Z,1.00
2022-08-10T12:06:13.609Z,1.20
2022-08-10T12:10:07.080Z,0.90
2022-08-10T12:11:34.802Z,0.90
2022-08-10T12:14:22.502Z,1.10
2022-08-10T12:16:59.932Z,1.20
2022-08-10T12:20:01.109Z,1.20
2022-08-10T12:22:49.012Z,0.90
2022-08-10T12:25:56.952Z,1.10
2022-08-10T12:28:17.811Z,1.20
2022-08-10T12:30:54.432Z,1.00
2022-08-10T12:33:31.910Z,1.10
2022-08-10T12:36:32.588Z,1.50
2022-08-10T12:39:09.505Z,1.30
2022-08-10T12:41:49.895Z,1.30
2022-08-10T12:44:42.355Z,1.10
2022-08-10T12:47:40.515Z,1.50
2022-08-10T12:50:32.895Z,1.60
2022-08-10T12:53:06.378Z,1.30
2022-08-10T12:55:37.506Z,1.20
2022-08-10T12:58:57.085Z,1.30
2022-08-10T13:01:15.061Z,1.40
2022-08-10T13:04:22.884Z,1.20
2022-08-10T13:06:41.727Z,1.70
2022-08-10T13:09:09.365Z,1.60
2022-08-10T13:12:38.031Z,1.30
2022-08-10T13:14:58.182Z,1.30
2022-08-10T13:17:38.892Z,1.10
2022-08-10T13:20:30.154Z,1.20
2022-08-10T13:23:01.480Z,0.80
2022-08-10T13:25:38.068Z,0.90
2022-08-10T13:28:35.318Z,0.90
2022-08-10T13:30:57.669Z,1.20
2022-08-10T13:34:40.000Z,0.70
2022-08-10T13:36:16.285Z,1.10
2022-08-10T13:38:48.874Z,1.10
2022-08-10T13:41:18.659Z,1.10
2022-08-10T13:43:52.641Z,1.00
2022-08-10T13:46:22.958Z,1.10
2022-08-10T13:48:53.602Z,1.30
2022-08-10T13:51:57.320Z,1.20
2022-08-10T13:54:18.482Z,1.20
2022-08-10T13:56:47.880Z,1.40
2022-08-10T13:59:16.686Z,1.50
2022-08-10T14:01:49.914Z,1.50
2022-08-10T14:04:18.966Z,1.60
2022-08-10T14:06:56.043Z,1.50
2022-08-10T14:09:27.430Z,1.10
2022-08-10T14:11:56.461Z,1.10
2022-08-10T14:14:25.960Z,4.90
2022-08-10T14:16:54.289Z,1.70
2022-08-10T14:19:32.042Z,1.70
2022-08-10T14:22:00.124Z,1.30
2022-08-10T14:24:29.158Z,1.30
2022-08-10T14:27:02.742Z,1.40
2022-08-10T14:29:31.500Z,1.30
2022-08-10T14:32:02.454Z,1.50
2022-08-10T14:36:15.552Z,1.30
2022-08-10T14:37:37.460Z,1.60
2022-08-10T14:40:17.095Z,1.80
2022-08-10T14:43:01.643Z,1.60
2022-08-10T14:45:35.392Z,1.60
2022-08-10T14:48:23.623Z,1.50
2022-08-10T14:51:00.885Z,1.40
2022-08-10T14:53:35.168Z,1.30
2022-08-10T14:56:11.250Z,1.30
2022-08-10T14:59:05.325Z,1.60
2022-08-10T15:02:00.265Z,1.40
2022-08-10T15:04:24.981Z,1.40
2022-08-10T15:07:12.658Z,1.30
2022-08-10T15:09:59.541Z,1.50
2022-08-10T15:12:35.336Z,1.40
2022-08-10T15:15:05.782Z,1.50
2022-08-10T15:17:39.851Z,1.50
2022-08-10T15:20:20.482Z,1.50
2022-08-10T15:23:30.807Z,1.80
2022-08-10T15:26:10.943Z,1.60
2022-08-10T15:29:22.258Z,1.50
2022-08-10T15:31:34.326Z,1.70
2022-08-10T15:34:23.287Z,1.70
2022-08-10T15:37:39.599Z,1.80
2022-08-10T15:40:26.040Z,2.20
2022-08-10T15:43:20.237Z,1.60
2022-08-10T15:48:26.166Z,2.00
2022-08-10T15:51:06.277Z,1.90
2022-08-10T15:53:50.655Z,1.90
2022-08-10T15:56:48.781Z,1.80
2022-08-10T15:59:41.397Z,2.00
2022-08-10T16:02:18.967Z,2.10
2022-08-10T16:05:06.795Z,2.00
2022-08-10T16:07:49.932Z,2.20
2022-08-10T16:10:26.622Z,1.90
2022-08-10T16:13:00.820Z,2.00
2022-08-10T16:15:30.635Z,2.00
2022-08-10T16:18:11.881Z,1.90
2022-08-10T16:20:53.359Z,2.00
2022-08-10T16:23:28.891Z,1.80
2022-08-10T16:26:15.197Z,2.40
2022-08-10T16:28:51.039Z,2.20
2022-08-10T16:31:24.661Z,2.00
2022-08-10T16:33:55.130Z,2.20
2022-08-10T16:36:32.210Z,2.10
2022-08-10T16:39:01.148Z,2.10
2022-08-10T16:42:03.354Z,1.90
2022-08-10T16:44:20.400Z,1.40
2022-08-10T16:46:48.459Z,2.20
2022-08-10T16:49:18.416Z,2.80
2022-08-10T16:51:49.489Z,2.30
2022-08-10T16:54:27.384Z,2.80
2022-08-10T16:57:01.607Z,2.40
2022-08-10T16:59:36.997Z,1.90
2022-08-10T17:02:06.162Z,2.00
2022-08-10T17:04:36.506Z,1.60
2022-08-10T17:07:08.378Z,2.20
2022-08-10T17:09:37.765Z,2.00
2022-08-10T17:12:13.664Z,2.10
2022-08-10T17:14:42.954Z,2.70
2022-08-10T17:17:24.783Z,2.30
2022-08-10T17:19:52.944Z,2.00
2022-08-10T17:22:21.512Z,2.00
2022-08-10T17:24:55.389Z,2.40
2022-08-10T17:28:05.821Z,2.20
2022-08-10T17:30:33.795Z,2.70
2022-08-10T17:33:11.381Z,2.50
2022-08-10T17:35:39.574Z,2.10
2022-08-10T17:38:09.393Z,2.30
2022-08-10T17:40:51.792Z,2.40
2022-08-10T17:43:46.368Z,2.30
2022-08-10T17:46:12.854Z,2.50
2022-08-10T17:48:43.406Z,2.20
2022-08-10T17:51:14.200Z,2.30
2022-08-10T17:53:46.915Z,2.70
2022-08-10T17:56:16.714Z,2.40
2022-08-10T17:59:16.688Z,2.20
2022-08-10T18:02:01.936Z,2.60
2022-08-10T18:04:41.222Z,2.50
2022-08-10T18:07:11.374Z,2.70
2022-08-10T18:09:50.047Z,2.70
2022-08-10T18:12:38.773Z,2.80
2022-08-10T18:15:13.626Z,2.60
2022-08-10T18:17:45.183Z,2.90
2022-08-10T18:20:14.690Z,2.80
2022-08-10T18:22:48.631Z,2.80
2022-08-10T18:25:22.645Z,2.80
2022-08-10T18:28:04.828Z,3.00
2022-08-10T18:30:36.354Z,2.50
2022-08-10T18:33:09.157Z,2.60
2022-08-10T18:35:37.586Z,3.10
2022-08-10T18:38:06.908Z,2.70
2022-08-10T18:40:37.196Z,2.90
2022-08-10T18:44:06.382Z,2.50
2022-08-10T18:45:57.405Z,3.00
2022-08-10T18:48:33.388Z,2.80
2022-08-10T18:51:06.180Z,3.50
2022-08-10T18:53:51.116Z,3.00
2022-08-10T18:56:20.973Z,3.50
2022-08-10T18:59:19.183Z,2.80
2022-08-10T19:02:03.034Z,3.00
2022-08-10T19:04:53.828Z,2.80
2022-08-10T19:07:39.398Z,3.10
2022-08-10T19:10:15.400Z,3.20
2022-08-10T19:12:50.586Z,3.00
2022-08-10T19:15:27.408Z,2.80
2022-08-10T19:18:29.474Z,3.50
2022-08-10T19:21:30.893Z,2.90
2022-08-10T19:24:15.276Z,3.40
2022-08-10T19:26:49.506Z,3.50
2022-08-10T19:30:10.702Z,3.20
2022-08-10T19:32:58.902Z,3.10
2022-08-10T19:35:34.827Z,3.50
2022-08-10T19:38:34.708Z,3.80
2022-08-10T19:41:15.135Z,2.90
2022-08-10T19:44:10.852Z,3.20
2022-08-10T19:47:05.715Z,3.00
2022-08-10T19:49:58.007Z,2.90
2022-08-10T19:53:13.462Z,3.20
2022-08-10T19:56:33.054Z,2.70
2022-08-10T20:00:15.286Z,2.80
2022-08-10T20:02:11.386Z,3.10
2022-08-10T20:04:46.609Z,3.30
2022-08-10T20:07:29.276Z,3.00
2022-08-10T20:10:02.669Z,2.90
2022-08-10T20:12:52.862Z,2.90
2022-08-10T20:15:41.648Z,3.00
2022-08-10T20:18:31.393Z,3.10
2022-08-10T20:21:14.848Z,3.10
2022-08-10T20:23:58.636Z,3.50
2022-08-10T20:26:31.128Z,3.40
2022-08-10T20:29:58.477Z,3.10
2022-08-10T20:36:04.785Z,3.00
2022-08-10T20:38:49.520Z,3.20
2022-08-10T20:41:33.256Z,2.90
2022-08-10T20:44:19.301Z,3.40
2022-08-10T20:46:59.407Z,3.00
2022-08-10T20:49:42.843Z,2.80
2022-08-10T20:52:11.043Z,3.10
2022-08-10T20:54:51.135Z,3.30
2022-08-10T20:57:54.890Z,2.80
2022-08-10T21:04:39.806Z,3.30
2022-08-10T21:07:28.464Z,2.90
2022-08-10T21:10:12.472Z,3.00
2022-08-10T21:12:52.096Z,3.40
2022-08-10T21:20:04.854Z,3.30
2022-08-10T21:35:38.514Z,3.20
2022-08-10T21:55:57.225Z,4.30
2022-08-10T22:07:22.322Z,3.60
2022-08-10T22:10:12.724Z,4.70
2022-08-10T22:24:58.444Z,3.70
2022-08-10T22:27:59.853Z,3.40
2022-08-10T22:31:22.941Z,3.60
2022-08-10T22:42:17.361Z,3.60
2022-08-10T22:45:06.278Z,3.20
2022-08-10T22:47:52.527Z,3.60
2022-08-10T22:53:03.192Z,3.80
2022-08-10T22:59:12.456Z,3.10
2022-08-10T23:02:07.937Z,3.40
2022-08-10T23:07:17.882Z,3.70
2022-08-10T23:09:59.832Z,3.80
2022-08-10T23:12:41.899Z,3.80
2022-08-10T23:15:41.497Z,3.30
2022-08-10T23:18:31.867Z,2.90
2022-08-10T23:21:01.201Z,3.60
2022-08-10T23:23:35.581Z,3.60
2022-08-10T23:26:27.918Z,3.20
2022-08-10T23:29:05.180Z,3.70
2022-08-10T23:31:50.191Z,3.80
2022-08-10T23:34:33.190Z,3.60
2022-08-10T23:37:02.122Z,3.00
2022-08-10T23:39:39.886Z,3.10
2022-08-10T23:53:30.442Z,3.60
